Time;durP1;ratioP1;P1;durP2;ratioP2;P2;SDS_P1;SDS_P2;PMS_P1;PMS_P2;Temp;Humidity;BMP_temperature;BMP_pressure;BME280_temperature;BME280_humidity;BME280_pressure;Samples;Min_cycle;Max_cycle;Signal;HPM_P1;HPM_P2
2021/09/19 00:01:29;;;;;;;8.50;5.28;;;;;;;;;;5036214;28;20026;-50
2021/09/19 00:03:55;;;;;;;11.30;4.57;;;;;;;;;;5035082;28;20390;-51
2021/09/19 00:06:21;;;;;;;7.65;5.00;;;;;;;;;;5036093;28;20028;-51
2021/09/19 00:08:47;;;;;;;9.07;4.97;;;;;;;;;;5035450;28;20518;-50
2021/09/19 00:11:13;;;;;;;9.75;5.60;;;;;;;;;;5036243;28;20116;-50
2021/09/19 00:13:39;;;;;;;10.68;5.72;;;;;;;;;;5035223;28;20104;-50
2021/09/19 00:16:05;;;;;;;10.23;5.82;;;;;;;;;;5035872;28;20176;-50
2021/09/19 00:18:31;;;;;;;8.95;5.55;;;;;;;;;;5035747;28;20463;-50
2021/09/19 00:20:57;;;;;;;10.65;5.55;;;;;;;;;;5035699;28;20447;-50
2021/09/19 00:23:23;;;;;;;7.60;4.35;;;;;;;;;;5035414;28;20036;-50
2021/09/19 00:25:50;;;;;;;9.48;5.30;;;;;;;;;;5035319;28;20052;-50
2021/09/19 00:28:16;;;;;;;8.38;5.25;;;;;;;;;;5035595;28;20035;-50
2021/09/19 00:30:43;;;;;;;8.65;4.95;;;;;;;;;;5035351;28;20451;-50
2021/09/19 00:33:09;;;;;;;9.43;5.38;;;;;;;;;;5035567;28;20474;-50
2021/09/19 00:35:35;;;;;;;8.35;4.95;;;;;;;;;;5034626;28;20025;-50
2021/09/19 00:38:01;;;;;;;8.88;4.55;;;;;;;;;;5035283;28;20033;-51
2021/09/19 00:40:27;;;;;;;8.05;4.30;;;;;;;;;;5035700;28;20108;-50
2021/09/19 00:42:53;;;;;;;8.07;4.63;;;;;;;;;;5035251;28;20029;-51
2021/09/19 00:45:23;;;;;;;6.78;4.57;;;;;;;;;;5034882;28;20021;-50
2021/09/19 00:47:49;;;;;;;9.45;5.15;;;;;;;;;;5035230;28;20410;-51
2021/09/19 00:50:16;;;;;;;8.80;4.93;;;;;;;;;;5034682;28;20052;-51
2021/09/19 00:52:42;;;;;;;11.75;4.88;;;;;;;;;;5035058;28;20025;-50
2021/09/19 00:55:09;;;;;;;8.60;5.03;;;;;;;;;;5034582;28;20026;-51
2021/09/19 00:57:39;;;;;;;8.93;4.53;;;;;;;;;;5035270;28;20029;-51
2021/09/19 01:00:06;;;;;;;6.10;4.13;;;;;;;;;;5034824;28;20021;-50
2021/09/19 01:02:32;;;;;;;5.78;3.90;;;;;;;;;;5034975;28;20108;-50
2021/09/19 01:04:58;;;;;;;8.70;4.25;;;;;;;;;;5034213;28;20459;-51
2021/09/19 01:07:24;;;;;;;6.65;4.10;;;;;;;;;;5034864;28;20029;-50
2021/09/19 01:09:52;;;;;;;9.85;4.75;;;;;;;;;;5034578;28;20435;-50
2021/09/19 01:12:20;;;;;;;7.55;4.55;;;;;;;;;;5034814;28;20037;-50
2021/09/19 01:14:47;;;;;;;7.75;4.63;;;;;;;;;;5034041;28;20099;-51
2021/09/19 01:17:14;;;;;;;6.45;4.10;;;;;;;;;;5034346;28;20037;-50
2021/09/19 01:19:40;;;;;;;7.55;4.30;;;;;;;;;;5034629;28;20029;-50
2021/09/19 01:22:07;;;;;;;6.55;4.45;;;;;;;;;;5034736;28;20116;-50
2021/09/19 01:24:34;;;;;;;6.47;4.50;;;;;;;;;;5033571;28;20111;-50
2021/09/19 01:27:00;;;;;;;8.30;4.70;;;;;;;;;;5034608;28;20477;-50
2021/09/19 01:29:26;;;;;;;4.53;3.85;;;;;;;;;;5032712;28;20033;-50
2021/09/19 01:31:52;;;;;;;5.60;3.85;;;;;;;;;;5040749;28;20025;-50
2021/09/19 01:34:18;;;;;;;7.25;4.32;;;;;;;;;;5051345;28;20334;-50
2021/09/19 01:36:44;;;;;;;6.38;4.00;;;;;;;;;;5054292;28;20040;-50
2021/09/19 01:39:11;;;;;;;4.20;3.22;;;;;;;;;;5044311;28;20029;-50
2021/09/19 01:41:37;;;;;;;7.78;4.45;;;;;;;;;;5036632;28;20025;-51
2021/09/19 01:44:05;;;;;;;8.30;4.00;;;;;;;;;;5052726;28;20029;-51
2021/09/19 01:46:32;;;;;;;4.95;4.18;;;;;;;;;;5054305;28;20028;-50
2021/09/19 01:48:58;;;;;;;7.90;4.80;;;;;;;;;;5054032;28;20025;-50
2021/09/19 01:51:24;;;;;;;5.65;4.20;;;;;;;;;;5054347;28;20029;-50
2021/09/19 01:53:51;;;;;;;7.97;4.32;;;;;;;;;;5052963;28;20463;-50
2021/09/19 01:56:17;;;;;;;6.63;3.95;;;;;;;;;;5054127;28;20033;-50
2021/09/19 01:58:43;;;;;;;6.03;4.30;;;;;;;;;;5053713;28;20029;-50
2021/09/19 02:01:09;;;;;;;7.57;4.15;;;;;;;;;;5053976;28;20151;-50
2021/09/19 02:03:39;;;;;;;6.03;4.28;;;;;;;;;;5052967;28;20029;-50
2021/09/19 02:06:06;;;;;;;7.18;4.45;;;;;;;;;;5053656;28;20443;-50
2021/09/19 02:08:36;;;;;;;5.28;3.88;;;;;;;;;;5053869;28;20025;-50
2021/09/19 02:11:02;;;;;;;6.80;4.25;;;;;;;;;;5053424;28;20028;-50
2021/09/19 02:13:28;;;;;;;6.97;4.18;;;;;;;;;;5052666;28;20347;-50
2021/09/19 02:15:54;;;;;;;5.85;4.00;;;;;;;;;;5053529;28;20075;-50
2021/09/19 02:18:20;;;;;;;7.70;4.28;;;;;;;;;;5053578;28;20091;-51
2021/09/19 02:20:46;;;;;;;6.25;3.53;;;;;;;;;;5053224;28;20032;-50
2021/09/19 02:23:12;;;;;;;8.98;4.10;;;;;;;;;;5053526;28;20359;-50
2021/09/19 02:25:38;;;;;;;4.80;3.55;;;;;;;;;;5052408;28;20055;-50
2021/09/19 02:28:04;;;;;;;5.90;3.90;;;;;;;;;;5045861;28;20443;-50
2021/09/19 02:30:30;;;;;;;6.45;4.00;;;;;;;;;;5052619;28;20028;-50
2021/09/19 02:32:56;;;;;;;7.28;3.88;;;;;;;;;;5052900;28;20032;-50
2021/09/19 02:35:22;;;;;;;6.43;3.65;;;;;;;;;;5052598;28;20354;-50
2021/09/19 02:37:48;;;;;;;8.32;4.45;;;;;;;;;;5053053;28;20033;-50
2021/09/19 02:40:15;;;;;;;7.10;3.72;;;;;;;;;;5052854;28;20036;-50
2021/09/19 02:42:41;;;;;;;5.82;3.60;;;;;;;;;;5052939;28;20060;-50
2021/09/19 02:45:08;;;;;;;5.82;4.07;;;;;;;;;;5052827;28;20025;-50
2021/09/19 02:47:35;;;;;;;6.60;3.60;;;;;;;;;;5052504;28;20067;-50
2021/09/19 02:50:00;;;;;;;4.45;3.53;;;;;;;;;;5052835;28;20040;-50
2021/09/19 02:52:27;;;;;;;11.75;4.00;;;;;;;;;;5052707;28;20028;-50
2021/09/19 02:54:53;;;;;;;5.68;3.30;;;;;;;;;;5052475;28;20021;-50
2021/09/19 02:57:19;;;;;;;6.60;4.20;;;;;;;;;;5050743;28;20067;-50
2021/09/19 02:59:45;;;;;;;4.88;3.15;;;;;;;;;;5052405;28;20026;-50
2021/09/19 03:02:11;;;;;;;4.65;3.25;;;;;;;;;;5051532;28;20357;-50
2021/09/19 03:04:37;;;;;;;7.45;4.10;;;;;;;;;;5052133;28;20017;-50
2021/09/19 03:07:03;;;;;;;5.15;3.42;;;;;;;;;;5052957;28;20021;-50
2021/09/19 03:09:29;;;;;;;7.00;4.03;;;;;;;;;;5052740;28;20037;-50
2021/09/19 03:11:54;;;;;;;8.20;4.47;;;;;;;;;;5037980;28;20033;-50
2021/09/19 03:14:20;;;;;;;8.25;4.65;;;;;;;;;;5031843;28;20254;-50
2021/09/19 03:16:47;;;;;;;7.55;4.47;;;;;;;;;;5033020;28;20044;-50
2021/09/19 03:19:12;;;;;;;6.53;4.00;;;;;;;;;;5032811;28;20055;-51
2021/09/19 03:21:38;;;;;;;7.68;4.38;;;;;;;;;;5032721;28;20032;-50
2021/09/19 03:24:04;;;;;;;9.68;4.03;;;;;;;;;;5031665;28;20022;-50
2021/09/19 03:26:30;;;;;;;4.35;3.10;;;;;;;;;;5031344;28;20025;-50
2021/09/19 03:28:57;;;;;;;6.40;3.45;;;;;;;;;;5033302;28;20159;-50
2021/09/19 03:31:22;;;;;;;9.45;3.05;;;;;;;;;;5034677;28;20022;-51
2021/09/19 03:33:48;;;;;;;5.25;3.35;;;;;;;;;;5051687;28;20025;-50
2021/09/19 03:36:14;;;;;;;3.83;3.17;;;;;;;;;;5052696;28;20430;-51
2021/09/19 03:38:41;;;;;;;3.72;2.85;;;;;;;;;;5052322;28;20033;-51
2021/09/19 03:41:07;;;;;;;5.95;3.25;;;;;;;;;;5052516;28;20053;-51
2021/09/19 03:43:33;;;;;;;6.07;3.30;;;;;;;;;;5051440;28;20703;-51
2021/09/19 03:45:59;;;;;;;6.35;3.25;;;;;;;;;;5050913;28;20025;-51
2021/09/19 03:48:24;;;;;;;9.15;2.83;;;;;;;;;;5051211;28;20021;-51
2021/09/19 03:50:50;;;;;;;5.68;3.38;;;;;;;;;;5052198;28;20025;-51
2021/09/19 03:53:17;;;;;;;5.30;2.83;;;;;;;;;;5052350;28;20044;-51
2021/09/19 03:55:43;;;;;;;5.45;3.53;;;;;;;;;;5051315;28;20021;-51
2021/09/19 03:58:09;;;;;;;5.07;3.00;;;;;;;;;;5052149;28;20402;-50
2021/09/19 04:00:35;;;;;;;4.07;2.78;;;;;;;;;;5052128;28;20469;-51
2021/09/19 04:03:01;;;;;;;6.88;3.30;;;;;;;;;;5052276;28;20112;-51
2021/09/19 04:05:27;;;;;;;7.00;2.97;;;;;;;;;;5042901;28;20128;-50
2021/09/19 04:07:53;;;;;;;5.28;3.13;;;;;;;;;;5036745;28;20402;-50
2021/09/19 04:10:19;;;;;;;5.20;3.35;;;;;;;;;;5035342;28;20021;-51
2021/09/19 04:12:45;;;;;;;5.47;3.50;;;;;;;;;;5036108;28;20033;-51
2021/09/19 04:15:11;;;;;;;6.20;3.55;;;;;;;;;;5035171;28;20022;-51
2021/09/19 04:17:37;;;;;;;4.68;2.80;;;;;;;;;;5035996;28;20033;-51
2021/09/19 04:20:04;;;;;;;4.05;3.00;;;;;;;;;;5036023;28;20026;-51
2021/09/19 04:22:30;;;;;;;4.80;2.72;;;;;;;;;;5036093;28;20390;-51
2021/09/19 04:24:56;;;;;;;5.90;3.40;;;;;;;;;;5034235;28;20071;-50
2021/09/19 04:27:22;;;;;;;4.53;3.40;;;;;;;;;;5035761;28;20099;-51
2021/09/19 04:29:48;;;;;;;4.65;3.25;;;;;;;;;;5035763;28;20428;-51
2021/09/19 04:32:15;;;;;;;4.13;2.83;;;;;;;;;;5036062;28;20136;-51
2021/09/19 04:34:41;;;;;;;4.82;3.33;;;;;;;;;;5034721;28;20076;-50
2021/09/19 04:37:07;;;;;;;4.35;2.72;;;;;;;;;;5034091;28;20471;-50
2021/09/19 04:39:33;;;;;;;4.28;3.30;;;;;;;;;;5035117;28;20053;-50
2021/09/19 04:41:59;;;;;;;4.32;2.95;;;;;;;;;;5035651;28;20365;-51
2021/09/19 04:44:25;;;;;;;4.32;2.78;;;;;;;;;;5034852;28;20032;-51
2021/09/19 04:46:51;;;;;;;5.45;3.03;;;;;;;;;;5035215;28;20392;-51
2021/09/19 04:49:17;;;;;;;4.43;3.08;;;;;;;;;;5035443;28;20033;-51
2021/09/19 04:51:43;;;;;;;3.88;2.90;;;;;;;;;;5035014;28;20018;-51
2021/09/19 04:54:09;;;;;;;4.70;3.30;;;;;;;;;;5034262;28;20407;-51
2021/09/19 04:56:35;;;;;;;7.97;3.33;;;;;;;;;;5035044;28;20036;-51
2021/09/19 04:59:01;;;;;;;3.83;2.60;;;;;;;;;;5034783;28;20512;-50
2021/09/19 05:01:27;;;;;;;5.57;3.60;;;;;;;;;;5035382;28;20038;-50
2021/09/19 05:03:53;;;;;;;5.00;2.88;;;;;;;;;;5034503;28;20021;-50
2021/09/19 05:06:19;;;;;;;5.10;2.85;;;;;;;;;;5034909;28;20032;-50
2021/09/19 05:08:45;;;;;;;3.35;2.88;;;;;;;;;;5034901;28;20033;-50
2021/09/19 05:11:11;;;;;;;8.93;2.90;;;;;;;;;;5035037;28;20075;-50
2021/09/19 05:13:37;;;;;;;4.10;3.25;;;;;;;;;;5033777;28;20119;-50
2021/09/19 05:16:03;;;;;;;5.15;2.97;;;;;;;;;;5033791;28;20097;-50
2021/09/19 05:18:29;;;;;;;5.43;3.30;;;;;;;;;;5034608;28;20049;-50
2021/09/19 05:20:55;;;;;;;6.78;2.90;;;;;;;;;;5034960;28;20022;-50
2021/09/19 05:23:21;;;;;;;4.50;2.90;;;;;;;;;;5039815;28;20423;-51
2021/09/19 05:25:47;;;;;;;4.57;2.72;;;;;;;;;;5044134;28;20521;-51
2021/09/19 05:28:13;;;;;;;4.72;2.83;;;;;;;;;;5046498;28;20048;-50
2021/09/19 05:30:39;;;;;;;7.15;3.15;;;;;;;;;;5051200;28;20033;-50
2021/09/19 05:33:05;;;;;;;4.15;2.88;;;;;;;;;;5054587;28;20071;-50
2021/09/19 05:35:31;;;;;;;7.55;2.40;;;;;;;;;;5053339;28;20021;-51
2021/09/19 05:37:57;;;;;;;3.00;2.53;;;;;;;;;;5053567;28;20450;-50
2021/09/19 05:40:24;;;;;;;4.22;3.05;;;;;;;;;;5050454;28;20081;-50
2021/09/19 05:42:50;;;;;;;4.95;3.05;;;;;;;;;;5042762;28;20075;-50
2021/09/19 05:45:16;;;;;;;5.82;2.78;;;;;;;;;;5053200;28;20426;-50
2021/09/19 05:47:42;;;;;;;5.18;2.97;;;;;;;;;;5049038;28;20025;-50
2021/09/19 05:50:08;;;;;;;4.90;3.30;;;;;;;;;;5054208;28;20117;-50
2021/09/19 05:52:34;;;;;;;4.30;2.70;;;;;;;;;;5054467;28;20025;-50
2021/09/19 05:55:00;;;;;;;4.38;3.03;;;;;;;;;;5053154;28;20328;-50
2021/09/19 05:57:26;;;;;;;5.70;3.17;;;;;;;;;;5054122;28;20028;-50
2021/09/19 05:59:54;;;;;;;3.67;2.95;;;;;;;;;;5053569;28;20350;-50
2021/09/19 06:02:20;;;;;;;4.85;2.50;;;;;;;;;;5054044;28;20028;-50
2021/09/19 06:04:45;;;;;;;5.35;3.20;;;;;;;;;;5052229;28;20029;-50
2021/09/19 06:07:11;;;;;;;7.30;3.13;;;;;;;;;;5054261;28;20471;-50
2021/09/19 06:09:37;;;;;;;4.13;2.75;;;;;;;;;;5053709;28;20435;-50
2021/09/19 06:12:04;;;;;;;5.47;3.05;;;;;;;;;;5037860;28;20040;-50
2021/09/19 06:14:29;;;;;;;5.03;2.65;;;;;;;;;;5032520;28;20053;-50
2021/09/19 06:16:56;;;;;;;7.80;3.47;;;;;;;;;;5033589;28;20061;-50
2021/09/19 06:19:21;;;;;;;3.83;3.08;;;;;;;;;;5033584;28;20047;-50
2021/09/19 06:21:47;;;;;;;5.00;3.28;;;;;;;;;;5033339;28;20527;-50
2021/09/19 06:24:13;;;;;;;4.53;3.00;;;;;;;;;;5032744;28;20053;-50
2021/09/19 06:26:39;;;;;;;5.72;3.10;;;;;;;;;;5033038;28;20831;-50
2021/09/19 06:29:05;;;;;;;4.65;2.67;;;;;;;;;;5033433;28;20120;-50
2021/09/19 06:31:31;;;;;;;5.40;3.00;;;;;;;;;;5033019;28;20354;-50
2021/09/19 06:33:58;;;;;;;6.90;3.17;;;;;;;;;;5032594;28;20033;-50
2021/09/19 06:36:24;;;;;;;5.00;2.72;;;;;;;;;;5033248;28;20032;-50
2021/09/19 06:38:50;;;;;;;3.95;2.83;;;;;;;;;;5050623;28;20025;-51
2021/09/19 06:41:16;;;;;;;6.30;3.33;;;;;;;;;;5052909;28;20029;-50
2021/09/19 06:43:42;;;;;;;4.65;3.13;;;;;;;;;;5052706;28;20020;-50
2021/09/19 06:46:08;;;;;;;6.75;4.07;;;;;;;;;;5052939;28;20052;-51
2021/09/19 06:48:34;;;;;;;5.50;3.40;;;;;;;;;;5052628;28;20048;-51
2021/09/19 06:51:00;;;;;;;5.72;4.20;;;;;;;;;;5052843;28;20461;-50
2021/09/19 06:53:26;;;;;;;5.88;3.80;;;;;;;;;;5052850;28;20017;-50
2021/09/19 06:55:52;;;;;;;5.03;3.80;;;;;;;;;;5052503;28;20351;-50
2021/09/19 06:58:18;;;;;;;9.02;3.95;;;;;;;;;;5052867;28;20037;-50
2021/09/19 07:00:44;;;;;;;5.00;3.55;;;;;;;;;;5052632;28;20052;-51
2021/09/19 07:03:10;;;;;;;6.25;4.45;;;;;;;;;;5052906;28;20078;-51
2021/09/19 07:05:36;;;;;;;9.88;4.40;;;;;;;;;;5051939;28;20425;-50
2021/09/19 07:08:02;;;;;;;7.18;4.78;;;;;;;;;;5052933;28;20139;-50
2021/09/19 07:10:28;;;;;;;7.45;4.55;;;;;;;;;;5039143;28;20436;-51
2021/09/19 07:12:54;;;;;;;7.32;4.60;;;;;;;;;;5032850;28;20029;-50
2021/09/19 07:15:20;;;;;;;8.77;4.10;;;;;;;;;;5031700;28;20034;-51
2021/09/19 07:17:46;;;;;;;7.90;5.55;;;;;;;;;;5032235;28;20037;-50
2021/09/19 07:20:12;;;;;;;8.55;5.15;;;;;;;;;;5032758;28;20079;-50
2021/09/19 07:22:40;;;;;;;8.68;4.93;;;;;;;;;;5032518;28;20029;-51
2021/09/19 07:25:06;;;;;;;11.52;5.10;;;;;;;;;;5031917;28;20104;-50
2021/09/19 07:27:32;;;;;;;11.20;5.63;;;;;;;;;;5032179;28;20033;-51
2021/09/19 07:29:59;;;;;;;7.15;5.07;;;;;;;;;;5032771;28;20064;-50
2021/09/19 07:32:25;;;;;;;9.85;5.93;;;;;;;;;;5032083;28;20021;-50
2021/09/19 07:34:51;;;;;;;13.32;6.15;;;;;;;;;;5032080;28;20079;-50
2021/09/19 07:37:17;;;;;;;10.80;5.72;;;;;;;;;;5032260;28;20033;-50
2021/09/19 07:39:43;;;;;;;11.45;6.95;;;;;;;;;;5054186;28;20047;-50
2021/09/19 07:42:09;;;;;;;14.27;8.30;;;;;;;;;;5056597;28;20032;-50
2021/09/19 07:44:38;;;;;;;11.60;7.35;;;;;;;;;;5055649;28;20021;-50
2021/09/19 07:47:04;;;;;;;14.25;8.13;;;;;;;;;;5055730;28;20037;-50
2021/09/19 07:49:31;;;;;;;14.38;8.25;;;;;;;;;;5056242;28;20466;-50
2021/09/19 07:51:57;;;;;;;18.63;8.80;;;;;;;;;;5055850;28;20036;-50
2021/09/19 07:54:23;;;;;;;13.73;8.07;;;;;;;;;;5055853;28;20044;-50
2021/09/19 07:56:49;;;;;;;18.55;9.88;;;;;;;;;;5056254;28;20036;-50
2021/09/19 07:59:15;;;;;;;10.55;6.88;;;;;;;;;;5056282;28;20032;-51
2021/09/19 08:01:41;;;;;;;17.08;7.97;;;;;;;;;;5056025;28;20470;-50
2021/09/19 08:04:07;;;;;;;24.27;9.38;;;;;;;;;;5054780;28;20028;-51
2021/09/19 08:06:33;;;;;;;20.30;9.63;;;;;;;;;;5056060;28;20059;-51
2021/09/19 08:08:59;;;;;;;23.25;11.95;;;;;;;;;;5056109;28;20025;-50
2021/09/19 08:11:25;;;;;;;28.90;13.82;;;;;;;;;;5045630;28;20115;-50
2021/09/19 08:13:56;;;;;;;22.30;9.38;;;;;;;;;;5038040;28;20350;-50
2021/09/19 08:16:22;;;;;;;22.38;11.55;;;;;;;;;;5055622;28;20442;-50
2021/09/19 08:18:48;;;;;;;21.83;10.25;;;;;;;;;;5055491;28;20063;-50
2021/09/19 08:21:14;;;;;;;20.38;10.48;;;;;;;;;;5055630;28;20025;-51
2021/09/19 08:23:40;;;;;;;20.30;10.30;;;;;;;;;;5055322;28;20044;-51
2021/09/19 08:26:06;;;;;;;15.50;9.02;;;;;;;;;;5055925;28;20364;-51
2021/09/19 08:28:32;;;;;;;11.52;7.07;;;;;;;;;;5055020;28;20051;-51
2021/09/19 08:30:58;;;;;;;18.27;8.98;;;;;;;;;;5055515;28;20385;-51
2021/09/19 08:33:27;;;;;;;28.40;11.32;;;;;;;;;;5055000;28;20494;-51
2021/09/19 08:35:54;;;;;;;37.13;13.15;;;;;;;;;;5055388;28;20029;-50
2021/09/19 08:38:20;;;;;;;36.50;14.43;;;;;;;;;;5054996;28;20171;-50
2021/09/19 08:40:46;;;;;;;30.92;11.57;;;;;;;;;;5055863;28;20107;-51
2021/09/19 08:43:12;;;;;;;19.63;9.35;;;;;;;;;;5054882;28;20033;-51
2021/09/19 08:45:38;;;;;;;20.48;9.82;;;;;;;;;;5054802;28;20028;-51
2021/09/19 08:48:05;;;;;;;17.83;7.63;;;;;;;;;;5054795;28;20094;-51
2021/09/19 08:50:31;;;;;;;19.98;10.68;;;;;;;;;;5055139;28;20033;-51
2021/09/19 08:52:57;;;;;;;9.93;6.35;;;;;;;;;;5055116;28;20035;-51
2021/09/19 08:55:23;;;;;;;14.90;8.77;;;;;;;;;;5054175;28;20473;-50
2021/09/19 08:57:49;;;;;;;13.45;7.55;;;;;;;;;;5053553;28;20045;-50
2021/09/19 09:00:16;;;;;;;11.48;6.25;;;;;;;;;;5054521;28;20032;-51
2021/09/19 09:02:50;;;;;;;7.00;4.63;;;;;;;;;;5051451;28;20358;-51
2021/09/19 09:05:20;;;;;;;10.68;6.13;;;;;;;;;;5065553;28;20020;-51
2021/09/19 09:07:46;;;;;;;10.55;6.45;;;;;;;;;;5074825;28;20032;-51
2021/09/19 09:10:12;;;;;;;9.00;5.35;;;;;;;;;;5074289;28;20027;-51
2021/09/19 09:12:38;;;;;;;8.45;4.45;;;;;;;;;;5037251;28;20091;-51
2021/09/19 09:15:05;;;;;;;11.25;6.15;;;;;;;;;;5041480;28;20471;-51
2021/09/19 09:17:31;;;;;;;5.65;3.63;;;;;;;;;;5043105;28;20091;-51
2021/09/19 09:19:58;;;;;;;8.50;5.10;;;;;;;;;;5044245;28;20013;-51
2021/09/19 09:22:26;;;;;;;6.63;4.50;;;;;;;;;;5045259;28;20098;-51
2021/09/19 09:25:11;;;;;;;11.25;6.38;;;;;;;;;;5042367;28;20025;-50
2021/09/19 09:27:38;;;;;;;8.48;5.35;;;;;;;;;;5043047;28;20518;-50
2021/09/19 09:30:12;;;;;;;9.48;6.15;;;;;;;;;;5041142;28;20049;-50
2021/09/19 09:32:53;;;;;;;8.70;5.90;;;;;;;;;;5035404;28;20036;-51
2021/09/19 09:35:19;;;;;;;7.18;4.15;;;;;;;;;;5033239;28;20120;-51
2021/09/19 09:37:45;;;;;;;10.73;4.57;;;;;;;;;;5038084;28;20036;-51
2021/09/19 09:40:25;;;;;;;9.35;5.15;;;;;;;;;;5052577;28;20021;-51
2021/09/19 09:43:20;;;;;;;8.48;5.38;;;;;;;;;;5054160;28;20033;-50
2021/09/19 09:45:48;;;;;;;11.38;6.35;;;;;;;;;;5030709;28;20025;-50
2021/09/19 09:48:24;;;;;;;11.32;6.13;;;;;;;;;;5031181;28;20088;-50
2021/09/19 09:50:58;;;;;;;8.48;2.75;;;;;;;;;;5022466;28;20037;-51
2021/09/19 09:53:24;;;;;;;5.90;4.00;;;;;;;;;;5022277;28;20029;-51
2021/09/19 09:55:51;;;;;;;6.20;3.78;;;;;;;;;;5020468;28;20065;-51
2021/09/19 09:58:18;;;;;;;9.00;4.78;;;;;;;;;;5021287;28;20041;-51
2021/09/19 10:00:45;;;;;;;9.02;5.60;;;;;;;;;;5021427;28;20022;-50
2021/09/19 10:03:11;;;;;;;9.65;5.00;;;;;;;;;;5021729;28;20455;-50
2021/09/19 10:05:37;;;;;;;6.15;3.92;;;;;;;;;;5021187;28;20037;-50
2021/09/19 10:08:29;;;;;;;7.22;3.80;;;;;;;;;;5014778;28;20028;-51
2021/09/19 10:10:56;;;;;;;8.35;5.07;;;;;;;;;;5006118;28;20108;-50
2021/09/19 10:13:22;;;;;;;9.18;3.60;;;;;;;;;;5021055;28;20414;-50
2021/09/19 10:15:48;;;;;;;7.10;4.95;;;;;;;;;;5020837;28;20053;-50
2021/09/19 10:18:17;;;;;;;6.47;4.45;;;;;;;;;;5021824;28;20037;-51
2021/09/19 10:20:45;;;;;;;8.75;4.68;;;;;;;;;;5021119;28;20493;-51
2021/09/19 10:23:14;;;;;;;7.05;3.88;;;;;;;;;;5042080;28;20041;-50
2021/09/19 10:25:41;;;;;;;9.70;4.47;;;;;;;;;;5043126;28;20021;-50
2021/09/19 10:28:16;;;;;;;9.55;4.30;;;;;;;;;;5044395;28;20538;-50
2021/09/19 10:31:05;;;;;;;6.70;4.40;;;;;;;;;;5043864;28;20026;-50
2021/09/19 10:33:35;;;;;;;6.07;3.80;;;;;;;;;;5041991;28;20037;-50
2021/09/19 10:36:01;;;;;;;6.22;3.67;;;;;;;;;;5043939;28;20032;-50
2021/09/19 10:38:37;;;;;;;5.47;4.10;;;;;;;;;;5045729;28;20052;-50
2021/09/19 10:41:24;;;;;;;7.05;5.03;;;;;;;;;;5042192;28;20017;-51
2021/09/19 10:43:52;;;;;;;6.93;3.95;;;;;;;;;;5041250;28;20350;-51
2021/09/19 10:46:37;;;;;;;6.45;4.15;;;;;;;;;;5041022;28;20036;-51
2021/09/19 10:49:14;;;;;;;9.00;4.43;;;;;;;;;;5042622;28;20021;-51
2021/09/19 10:51:59;;;;;;;6.20;3.97;;;;;;;;;;5042153;28;20049;-51
2021/09/19 10:54:43;;;;;;;5.22;3.63;;;;;;;;;;5042252;28;20032;-50
2021/09/19 10:57:19;;;;;;;6.50;4.35;;;;;;;;;;5042380;28;20034;-50
2021/09/19 11:00:04;;;;;;;7.28;4.45;;;;;;;;;;5042503;28;20452;-51
2021/09/19 11:02:30;;;;;;;4.15;2.88;;;;;;;;;;5043389;28;20028;-50
2021/09/19 11:05:22;;;;;;;4.20;3.20;;;;;;;;;;5042311;28;20152;-51
2021/09/19 11:07:52;;;;;;;8.32;4.63;;;;;;;;;;5042366;28;20041;-50
2021/09/19 11:10:18;;;;;;;5.95;3.67;;;;;;;;;;5043237;28;20060;-50
2021/09/19 11:12:46;;;;;;;7.85;5.50;;;;;;;;;;5043363;28;20017;-50
2021/09/19 11:15:14;;;;;;;6.22;3.75;;;;;;;;;;5042075;28;20026;-50
2021/09/19 11:17:49;;;;;;;7.78;4.47;;;;;;;;;;5042829;28;20037;-50
2021/09/19 11:20:20;;;;;;;8.20;5.07;;;;;;;;;;5043919;28;20091;-50
2021/09/19 11:22:46;;;;;;;10.13;5.55;;;;;;;;;;5043062;28;20469;-50
2021/09/19 11:25:13;;;;;;;7.63;5.05;;;;;;;;;;5043558;28;20025;-50
2021/09/19 11:27:41;;;;;;;5.93;4.05;;;;;;;;;;5043336;28;20025;-50
2021/09/19 11:30:08;;;;;;;12.43;5.78;;;;;;;;;;5044181;28;20036;-50
2021/09/19 11:32:36;;;;;;;9.48;5.30;;;;;;;;;;5042204;28;20033;-50
2021/09/19 11:35:03;;;;;;;8.93;4.57;;;;;;;;;;5041149;28;20025;-50
2021/09/19 11:37:29;;;;;;;11.18;5.97;;;;;;;;;;5041677;28;20075;-50
2021/09/19 11:39:55;;;;;;;7.32;4.55;;;;;;;;;;5041549;28;20025;-50
2021/09/19 11:42:25;;;;;;;10.07;5.55;;;;;;;;;;5042038;28;20029;-50
2021/09/19 11:44:51;;;;;;;7.18;4.53;;;;;;;;;;5041021;28;20013;-50
2021/09/19 11:47:19;;;;;;;11.10;6.07;;;;;;;;;;5042383;28;20033;-50
2021/09/19 11:49:45;;;;;;;11.98;5.35;;;;;;;;;;5042504;28;20017;-50
2021/09/19 11:52:11;;;;;;;6.72;5.07;;;;;;;;;;5042429;28;20031;-50
2021/09/19 11:54:40;;;;;;;10.20;6.38;;;;;;;;;;5041266;28;20064;-50
2021/09/19 11:57:06;;;;;;;6.10;3.63;;;;;;;;;;5041939;28;20056;-50
2021/09/19 11:59:32;;;;;;;7.30;4.15;;;;;;;;;;5043361;28;20021;-50
2021/09/19 12:01:59;;;;;;;11.45;6.55;;;;;;;;;;5041703;28;20404;-50
2021/09/19 12:04:25;;;;;;;7.65;4.18;;;;;;;;;;5042714;28;20025;-50
2021/09/19 12:06:52;;;;;;;7.05;4.90;;;;;;;;;;5042657;28;20048;-50
2021/09/19 12:09:22;;;;;;;9.55;5.00;;;;;;;;;;5042674;28;20076;-50
2021/09/19 12:11:53;;;;;;;5.38;3.90;;;;;;;;;;5042349;28;20560;-50
2021/09/19 12:14:23;;;;;;;7.70;4.63;;;;;;;;;;5043486;28;20030;-50
2021/09/19 12:16:49;;;;;;;;;;;;;;;;;;5041928;28;20072;-50
2021/09/19 12:19:19;;;;;;;5.95;4.07;;;;;;;;;;5043677;28;19927;-50
2021/09/19 12:21:52;;;;;;;7.13;4.05;;;;;;;;;;5043081;28;20518;-50
2021/09/19 12:24:21;;;;;;;9.02;4.40;;;;;;;;;;5040513;28;20038;-50
2021/09/19 12:26:47;;;;;;;11.02;4.63;;;;;;;;;;5044196;28;20017;-50
2021/09/19 12:29:16;;;;;;;8.48;5.32;;;;;;;;;;5044826;28;20041;-50
2021/09/19 12:31:49;;;;;;;8.70;5.15;;;;;;;;;;5044105;28;20517;-50
2021/09/19 12:34:16;;;;;;;6.78;4.30;;;;;;;;;;5044190;28;20334;-50
2021/09/19 12:36:48;;;;;;;6.35;4.32;;;;;;;;;;5043752;28;20056;-51
2021/09/19 12:39:15;;;;;;;8.57;4.53;;;;;;;;;;5040419;28;20559;-50
2021/09/19 12:41:41;;;;;;;8.02;4.47;;;;;;;;;;5044425;28;20091;-50
2021/09/19 12:44:12;;;;;;;6.18;3.78;;;;;;;;;;5043319;28;20056;-50
2021/09/19 12:46:43;;;;;;;6.50;4.65;;;;;;;;;;5043744;28;20029;-50
2021/09/19 12:49:09;;;;;;;18.92;4.57;;;;;;;;;;5043640;28;20454;-50
2021/09/19 12:51:34;;;;;;;7.85;4.43;;;;;;;;;;5044752;28;20046;-51
2021/09/19 12:54:00;;;;;;;6.38;4.07;;;;;;;;;;5044044;28;20049;-50
2021/09/19 12:56:26;;;;;;;6.85;3.85;;;;;;;;;;5045864;28;20331;-50
2021/09/19 12:58:52;;;;;;;6.45;4.30;;;;;;;;;;5045735;28;20036;-50
2021/09/19 13:01:18;;;;;;;6.45;4.32;;;;;;;;;;5046267;28;20096;-50
2021/09/19 13:03:48;;;;;;;7.20;4.35;;;;;;;;;;5044602;28;20029;-50
2021/09/19 13:06:14;;;;;;;6.40;4.27;;;;;;;;;;5046796;28;20029;-50
2021/09/19 13:08:45;;;;;;;10.57;3.90;;;;;;;;;;5045573;28;20259;-50
2021/09/19 13:11:11;;;;;;;8.88;4.85;;;;;;;;;;5044334;28;20037;-51
2021/09/19 13:13:37;;;;;;;7.05;4.28;;;;;;;;;;5044364;28;20032;-50
2021/09/19 13:16:04;;;;;;;8.57;4.35;;;;;;;;;;5045762;28;20032;-50
2021/09/19 13:18:30;;;;;;;7.03;4.32;;;;;;;;;;5044216;28;20025;-50
2021/09/19 13:20:56;;;;;;;10.43;4.35;;;;;;;;;;5043520;28;20408;-50
2021/09/19 13:23:22;;;;;;;3.70;3.13;;;;;;;;;;5043556;28;20354;-50
2021/09/19 13:25:48;;;;;;;4.75;3.17;;;;;;;;;;5040632;28;20032;-51
2021/09/19 13:28:14;;;;;;;5.70;3.30;;;;;;;;;;5043844;28;20114;-50
2021/09/19 13:30:40;;;;;;;6.10;3.38;;;;;;;;;;5038765;28;20033;-50
2021/09/19 13:33:07;;;;;;;6.40;4.35;;;;;;;;;;5043135;28;20032;-50
2021/09/19 13:35:33;;;;;;;5.57;3.95;;;;;;;;;;5043219;28;20136;-50
2021/09/19 13:37:59;;;;;;;6.03;3.63;;;;;;;;;;5043303;28;20033;-50
2021/09/19 13:40:25;;;;;;;5.45;3.55;;;;;;;;;;5044558;28;20017;-50
2021/09/19 13:42:51;;;;;;;6.82;4.30;;;;;;;;;;5044216;28;20029;-50
2021/09/19 13:45:17;;;;;;;4.43;3.30;;;;;;;;;;5043481;28;20029;-50
2021/09/19 13:47:44;;;;;;;5.70;3.67;;;;;;;;;;5044396;28;20020;-51
2021/09/19 13:50:10;;;;;;;3.97;3.10;;;;;;;;;;5043963;28;20112;-50
2021/09/19 13:52:36;;;;;;;6.50;3.45;;;;;;;;;;5044457;28;20514;-50
2021/09/19 13:55:02;;;;;;;5.75;3.25;;;;;;;;;;5037404;28;20363;-51
2021/09/19 13:57:28;;;;;;;5.57;3.28;;;;;;;;;;5042316;28;20036;-50
2021/09/19 13:59:54;;;;;;;4.80;3.28;;;;;;;;;;5042783;28;20025;-50
2021/09/19 14:02:20;;;;;;;5.38;3.50;;;;;;;;;;5041176;28;20493;-51
2021/09/19 14:04:46;;;;;;;7.00;3.58;;;;;;;;;;5041169;28;20060;-50
2021/09/19 14:07:14;;;;;;;5.25;3.70;;;;;;;;;;5041424;28;20059;-50
2021/09/19 14:09:40;;;;;;;5.35;4.00;;;;;;;;;;5039999;28;20021;-50
2021/09/19 14:12:06;;;;;;;5.80;3.60;;;;;;;;;;5040049;28;20866;-51
2021/09/19 14:14:32;;;;;;;7.30;4.30;;;;;;;;;;5041579;28;20027;-50
2021/09/19 14:16:58;;;;;;;4.95;3.00;;;;;;;;;;5041082;28;20034;-50
2021/09/19 14:19:24;;;;;;;3.10;2.33;;;;;;;;;;5042612;28;20471;-51
2021/09/19 14:21:50;;;;;;;9.50;3.25;;;;;;;;;;5041489;28;20103;-50
2021/09/19 14:24:16;;;;;;;7.65;3.25;;;;;;;;;;5041295;28;20135;-50
2021/09/19 14:26:42;;;;;;;6.47;2.67;;;;;;;;;;5044132;28;20025;-51
2021/09/19 14:29:08;;;;;;;5.63;3.70;;;;;;;;;;5041067;28;20037;-50
2021/09/19 14:31:34;;;;;;;4.28;3.55;;;;;;;;;;5042337;28;20028;-50
2021/09/19 14:34:00;;;;;;;3.95;2.78;;;;;;;;;;5039884;28;20472;-48
2021/09/19 14:36:26;;;;;;;4.88;3.45;;;;;;;;;;5040697;28;20195;-49
2021/09/19 14:38:52;;;;;;;6.10;2.67;;;;;;;;;;5042283;28;20033;-49
2021/09/19 14:41:18;;;;;;;4.22;2.88;;;;;;;;;;5042251;28;20387;-49